createdAt,value
2022-09-16T00:01:14.452Z,83.71
2022-09-16T00:04:22.601Z,83.81
2022-09-16T00:07:32.644Z,84.16
2022-09-16T00:10:41.476Z,84.58
2022-09-16T00:13:49.882Z,84.94
2022-09-16T00:16:58.336Z,85.52
2022-09-16T00:20:08.439Z,84.51
2022-09-16T00:23:19.866Z,84.50
2022-09-16T00:26:29.848Z,84.80
2022-09-16T00:29:38.187Z,84.46
2022-09-16T00:32:46.451Z,84.28
2022-09-16T00:36:04.927Z,84.65
2022-09-16T00:39:14.805Z,84.26
2022-09-16T00:42:23.174Z,84.10
2022-09-16T00:45:35.751Z,84.34
2022-09-16T00:48:44.630Z,84.24
2022-09-16T00:51:57.927Z,84.56
2022-09-16T00:55:12.988Z,85.04
2022-09-16T00:58:29.157Z,84.67
2022-09-16T01:01:39.393Z,83.62
2022-09-16T01:04:52.874Z,84.19
2022-09-16T01:08:01.615Z,83.80
2022-09-16T01:11:11.099Z,83.96
2022-09-16T01:14:40.870Z,83.32
2022-09-16T01:18:03.404Z,83.10
2022-09-16T01:21:38.896Z,84.21
2022-09-16T01:25:01.125Z,84.34
2022-09-16T01:28:40.417Z,83.66
2022-09-16T01:32:01.246Z,83.73
2022-09-16T01:35:21.863Z,84.87
2022-09-16T01:38:49.695Z,83.90
2022-09-16T01:42:16.109Z,82.88
2022-09-16T01:45:37.380Z,83.87
2022-09-16T01:48:58.055Z,83.82
2022-09-16T01:52:20.607Z,84.16
2022-09-16T01:55:38.061Z,84.25
2022-09-16T01:58:54.430Z,84.03
2022-09-16T02:02:10.499Z,84.43
2022-09-16T02:05:27.808Z,84.61
2022-09-16T02:08:44.893Z,84.32
2022-09-16T02:11:59.256Z,83.72
2022-09-16T02:15:14.540Z,83.47
2022-09-16T02:18:30.396Z,84.12
2022-09-16T02:21:45.887Z,83.33
2022-09-16T02:24:54.678Z,82.82
2022-09-16T02:28:12.609Z,83.07
2022-09-16T02:31:27.137Z,82.90
2022-09-16T02:34:41.859Z,83.28
2022-09-16T02:37:57.231Z,82.98
2022-09-16T02:41:06.230Z,83.32
2022-09-16T02:44:14.949Z,83.52
2022-09-16T02:47:34.016Z,82.96
2022-09-16T02:50:49.052Z,82.66
2022-09-16T02:54:06.950Z,83.03
2022-09-16T02:57:16.478Z,83.26
2022-09-16T03:00:25.788Z,82.91
2022-09-16T03:03:34.247Z,82.40
2022-09-16T03:06:42.694Z,82.85
2022-09-16T03:09:53.279Z,82.85
2022-09-16T03:13:13.485Z,82.76
2022-09-16T03:16:33.796Z,82.83
2022-09-16T03:19:56.872Z,82.86
2022-09-16T03:23:20.030Z,83.33
2022-09-16T03:26:39.739Z,84.14
2022-09-16T03:29:57.098Z,84.33
2022-09-16T03:33:14.485Z,84.26
2022-09-16T03:36:33.528Z,84.91
2022-09-16T03:39:43.192Z,85.33
2022-09-16T03:42:52.796Z,85.55
2022-09-16T03:46:00.985Z,84.83
2022-09-16T03:49:09.249Z,85.28
2022-09-16T03:52:20.753Z,85.31
2022-09-16T03:55:29.625Z,85.61
2022-09-16T03:58:39.207Z,85.01
2022-09-16T04:01:47.923Z,85.72
2022-09-16T04:04:56.887Z,85.29
2022-09-16T04:08:06.952Z,84.56
2022-09-16T04:11:15.823Z,84.71
2022-09-16T04:14:25.502Z,85.24
2022-09-16T04:17:34.643Z,84.65
2022-09-16T04:20:44.275Z,85.18
2022-09-16T04:23:54.628Z,85.22
2022-09-16T04:27:02.961Z,85.96
2022-09-16T04:30:14.760Z,85.06
2022-09-16T04:33:23.320Z,84.91
2022-09-16T04:36:32.059Z,84.60
2022-09-16T04:39:40.212Z,84.77
2022-09-16T04:42:51.262Z,84.39
2022-09-16T04:46:01.250Z,84.38
2022-09-16T04:49:09.456Z,84.07
2022-09-16T04:52:17.775Z,84.29
2022-09-16T04:55:26.072Z,84.70
2022-09-16T04:58:34.667Z,84.41
2022-09-16T05:01:45.852Z,84.33
2022-09-16T05:04:54.729Z,83.90
2022-09-16T05:08:03.544Z,83.88
2022-09-16T05:11:13.966Z,83.16
2022-09-16T05:14:22.277Z,82.69
2022-09-16T05:17:50.455Z,82.80
2022-09-16T05:21:01.101Z,83.21
2022-09-16T05:24:12.849Z,82.68
2022-09-16T05:27:22.240Z,82.45
2022-09-16T05:30:30.528Z,82.89
2022-09-16T05:33:41.228Z,82.44
2022-09-16T05:36:53.949Z,82.14
2022-09-16T05:40:02.529Z,82.57
2022-09-16T05:43:10.755Z,81.89
2022-09-16T05:46:22.244Z,82.57
2022-09-16T05:49:32.281Z,82.33
2022-09-16T05:52:40.576Z,82.53
2022-09-16T05:55:58.376Z,82.29
2022-09-16T05:59:07.038Z,82.36
2022-09-16T06:02:15.399Z,82.90
2022-09-16T06:05:25.108Z,82.69
2022-09-16T06:08:35.767Z,82.14
2022-09-16T06:11:47.425Z,82.46
2022-09-16T06:14:55.750Z,81.77
2022-09-16T06:18:06.438Z,81.09
2022-09-16T06:21:16.806Z,81.02
2022-09-16T06:24:25.491Z,80.53
2022-09-16T06:27:34.031Z,79.46
2022-09-16T06:30:43.136Z,79.60
2022-09-16T06:33:52.804Z,78.27
2022-09-16T06:37:03.650Z,78.68
2022-09-16T06:40:12.474Z,78.38
2022-09-16T06:43:20.734Z,78.33
2022-09-16T06:46:30.191Z,77.61
2022-09-16T06:49:38.536Z,77.31
2022-09-16T06:52:51.880Z,77.17
2022-09-16T06:56:03.199Z,76.89
2022-09-16T06:59:14.293Z,77.59
2022-09-16T07:02:22.558Z,77.40
2022-09-16T07:05:30.924Z,78.27
2022-09-16T07:08:42.168Z,78.64
2022-09-16T07:11:50.840Z,78.19
2022-09-16T07:14:59.228Z,78.54
2022-09-16T07:18:08.824Z,78.71
2022-09-16T07:21:20.187Z,79.04
2022-09-16T07:24:29.939Z,79.03
2022-09-16T07:27:38.153Z,79.48
2022-09-16T07:30:46.639Z,79.87
2022-09-16T07:34:02.821Z,79.51
2022-09-16T07:37:12.774Z,78.94
2022-09-16T07:40:24.555Z,79.32
2022-09-16T07:43:35.470Z,79.59
2022-09-16T07:46:44.619Z,78.62
2022-09-16T07:49:55.961Z,78.95
2022-09-16T07:53:04.582Z,79.21
2022-09-16T07:56:17.262Z,78.95
2022-09-16T07:59:25.430Z,78.22
2022-09-16T08:02:33.721Z,76.19
2022-09-16T08:05:42.174Z,75.35
2022-09-16T08:08:53.639Z,76.22
2022-09-16T08:12:06.448Z,76.59
2022-09-16T08:15:14.884Z,75.25
2022-09-16T08:18:23.569Z,74.04
2022-09-16T08:21:32.845Z,73.59
2022-09-16T08:24:41.308Z,75.82
2022-09-16T08:27:54.140Z,75.92
2022-09-16T08:31:04.879Z,75.66
2022-09-16T08:34:13.202Z,75.22
2022-09-16T08:37:21.916Z,73.16
2022-09-16T08:40:37.212Z,73.30
2022-09-16T08:43:56.852Z,72.88
2022-09-16T08:47:16.848Z,73.13
2022-09-16T08:50:32.859Z,72.64
2022-09-16T08:53:47.657Z,72.85
2022-09-16T08:57:01.888Z,72.71
2022-09-16T09:00:17.876Z,71.73
2022-09-16T09:03:38.223Z,70.86
2022-09-16T09:07:02.999Z,69.48
2022-09-16T09:10:24.511Z,70.17
2022-09-16T09:14:07.029Z,69.32
2022-09-16T09:17:48.676Z,70.57
2022-09-16T09:21:20.656Z,71.05
2022-09-16T09:24:48.405Z,71.39
2022-09-16T09:30:53.649Z,71.74
2022-09-16T09:34:18.378Z,70.39
2022-09-16T09:37:51.692Z,71.63
2022-09-16T09:41:09.385Z,70.13
2022-09-16T09:44:42.343Z,70.51
2022-09-16T09:48:02.040Z,70.03
2022-09-16T09:51:24.317Z,68.82
2022-09-16T09:54:36.260Z,68.06
2022-09-16T09:58:02.688Z,69.11
2022-09-16T10:01:12.699Z,70.94
2022-09-16T10:04:22.443Z,71.92
2022-09-16T10:07:31.103Z,72.60
2022-09-16T10:10:52.786Z,74.71
2022-09-16T10:14:05.728Z,74.35
2022-09-16T10:17:18.949Z,75.59
2022-09-16T10:20:35.714Z,73.03
2022-09-16T10:23:57.282Z,71.13
2022-09-16T10:27:22.592Z,72.59
2022-09-16T10:30:34.226Z,74.08
2022-09-16T10:33:46.247Z,75.67
2022-09-16T10:37:17.729Z,75.45
2022-09-16T10:40:27.666Z,74.94
2022-09-16T10:43:39.658Z,76.53
2022-09-16T10:46:55.739Z,75.78
2022-09-16T10:50:07.308Z,75.16
2022-09-16T10:53:30.986Z,75.67
2022-09-16T10:56:51.309Z,76.06
2022-09-16T11:00:04.750Z,77.45
2022-09-16T11:04:16.264Z,78.85
2022-09-16T11:07:43.003Z,79.75
2022-09-16T11:11:02.204Z,79.00
2022-09-16T11:14:22.518Z,76.57
2022-09-16T11:17:53.121Z,75.11
2022-09-16T11:21:29.446Z,70.60
2022-09-16T11:25:21.192Z,71.11
2022-09-16T11:29:10.333Z,68.44
2022-09-16T11:32:30.894Z,69.70
2022-09-16T11:36:11.457Z,70.81
2022-09-16T11:39:42.334Z,71.01
2022-09-16T11:43:02.307Z,73.33
2022-09-16T11:46:21.287Z,75.65
2022-09-16T11:49:56.928Z,76.24
2022-09-16T11:53:46.126Z,77.25
2022-09-16T11:57:01.832Z,78.44
2022-09-16T12:00:19.168Z,79.71
2022-09-16T12:03:39.723Z,80.96
2022-09-16T12:07:07.460Z,81.98
2022-09-16T12:10:23.272Z,83.85
2022-09-16T12:13:41.822Z,85.75
2022-09-16T12:16:58.918Z,85.55
2022-09-16T12:20:20.690Z,84.64
2022-09-16T12:23:36.017Z,83.86
2022-09-16T12:26:53.577Z,83.33
2022-09-16T12:30:09.037Z,81.87
2022-09-16T12:33:24.423Z,82.21
2022-09-16T12:36:41.090Z,81.37
2022-09-16T12:39:51.884Z,82.63
2022-09-16T12:43:42.419Z,82.91
2022-09-16T12:47:13.233Z,82.53
2022-09-16T12:50:54.621Z,80.28
2022-09-16T12:55:07.088Z,81.51
2022-09-16T12:58:58.401Z,82.84
2022-09-16T13:02:18.595Z,82.78
2022-09-16T13:05:33.575Z,83.60
2022-09-16T13:08:42.901Z,83.04
2022-09-16T13:12:36.728Z,83.23
2022-09-16T13:15:34.656Z,83.25
2022-09-16T13:18:48.025Z,83.87
2022-09-16T13:22:03.756Z,81.99
2022-09-16T13:25:25.637Z,80.49
2022-09-16T13:28:45.775Z,82.02
2022-09-16T13:35:24.374Z,80.46
2022-09-16T13:38:42.587Z,80.85
2022-09-16T13:41:53.086Z,79.01
2022-09-16T13:45:05.453Z,79.67
2022-09-16T13:48:19.497Z,77.87
2022-09-16T13:51:35.906Z,79.35
2022-09-16T13:55:10.026Z,78.84
2022-09-16T13:58:30.912Z,79.68
2022-09-16T14:01:59.918Z,77.81
2022-09-16T14:05:36.878Z,79.24
2022-09-16T14:08:59.321Z,78.86
2022-09-16T14:12:19.881Z,79.67
2022-09-16T14:15:31.128Z,79.83
2022-09-16T14:18:50.453Z,80.54
2022-09-16T14:22:04.844Z,80.82
2022-09-16T14:25:32.452Z,80.79
2022-09-16T14:28:42.164Z,80.91
2022-09-16T14:31:53.461Z,80.96
2022-09-16T14:35:11.935Z,80.97
2022-09-16T14:38:44.274Z,80.31
2022-09-16T14:41:56.995Z,79.81
2022-09-16T14:45:08.323Z,79.20
2022-09-16T14:48:20.308Z,79.15
2022-09-16T14:51:30.105Z,79.00
2022-09-16T14:54:45.725Z,77.41
2022-09-16T14:57:54.359Z,77.61
2022-09-16T15:01:12.096Z,76.69
2022-09-16T15:04:28.587Z,77.55
2022-09-16T15:08:02.575Z,77.10
2022-09-16T15:11:36.213Z,76.87
2022-09-16T15:14:45.649Z,77.24
2022-09-16T15:17:58.494Z,77.73
2022-09-16T15:21:12.268Z,77.56
2022-09-16T15:24:28.904Z,77.88
2022-09-16T15:27:37.389Z,77.73
2022-09-16T15:30:49.775Z,78.23
2022-09-16T15:34:00.420Z,78.64
2022-09-16T15:37:32.164Z,79.84
2022-09-16T15:40:43.145Z,79.47
2022-09-16T15:43:51.613Z,78.59
2022-09-16T15:47:00.211Z,78.04
2022-09-16T15:50:16.307Z,78.67
2022-09-16T15:53:42.818Z,79.41
2022-09-16T15:57:02.740Z,80.15
2022-09-16T16:00:16.243Z,79.76
2022-09-16T16:03:25.234Z,80.08
2022-09-16T16:06:51.793Z,80.00
2022-09-16T16:10:17.027Z,80.61
2022-09-16T16:13:37.401Z,81.57
2022-09-16T16:17:11.135Z,82.00
2022-09-16T16:20:20.715Z,81.52
2022-09-16T16:23:29.653Z,81.56
2022-09-16T16:26:38.408Z,83.21
2022-09-16T16:29:48.705Z,82.87
2022-09-16T16:32:57.528Z,82.85
2022-09-16T16:36:06.971Z,82.39
2022-09-16T16:39:15.496Z,82.74
2022-09-16T16:42:25.472Z,82.50
2022-09-16T16:45:36.009Z,82.48
2022-09-16T16:48:45.362Z,83.12
2022-09-16T16:51:57.765Z,83.40
2022-09-16T16:55:07.298Z,84.31
2022-09-16T16:58:15.822Z,83.42
2022-09-16T17:01:26.761Z,84.04
2022-09-16T17:04:35.353Z,84.56
2022-09-16T17:07:44.127Z,83.20
2022-09-16T17:11:08.062Z,83.82
2022-09-16T17:14:17.057Z,83.63
2022-09-16T17:17:31.351Z,83.74
2022-09-16T17:20:40.249Z,83.16
2022-09-16T17:23:48.496Z,83.64
2022-09-16T17:26:57.346Z,83.82
2022-09-16T17:30:07.868Z,83.32
2022-09-16T17:33:17.592Z,83.97
2022-09-16T17:36:26.765Z,84.29
2022-09-16T17:39:35.093Z,84.20
2022-09-16T17:42:43.270Z,84.46
2022-09-16T17:45:53.351Z,84.52
2022-09-16T17:49:06.405Z,84.43
2022-09-16T17:52:15.002Z,84.43
2022-09-16T17:55:23.403Z,83.84
2022-09-16T17:58:32.524Z,84.18
2022-09-16T18:01:41.267Z,84.32
2022-09-16T18:04:51.396Z,84.23
2022-09-16T18:08:00.498Z,84.54
2022-09-16T18:11:13.392Z,84.72
2022-09-16T18:14:23.589Z,85.08
2022-09-16T18:17:32.199Z,85.31
2022-09-16T18:20:42.530Z,85.41
2022-09-16T18:23:56.329Z,84.65
2022-09-16T18:27:05.353Z,84.84
2022-09-16T18:30:17.564Z,85.24
2022-09-16T18:33:25.733Z,85.09
2022-09-16T18:36:36.937Z,84.42
2022-09-16T18:39:47.216Z,84.79
2022-09-16T18:42:56.679Z,83.81
2022-09-16T18:46:12.531Z,84.75
2022-09-16T18:49:24.197Z,84.19
2022-09-16T18:52:34.160Z,84.86
2022-09-16T18:55:42.784Z,85.15
2022-09-16T18:59:17.281Z,85.13
2022-09-16T19:02:21.408Z,84.21
2022-09-16T19:05:29.697Z,84.21
2022-09-16T19:08:40.914Z,83.77
2022-09-16T19:11:50.547Z,84.16
2022-09-16T19:14:58.964Z,83.94
2022-09-16T19:18:07.294Z,83.55
2022-09-16T19:21:19.296Z,83.78
2022-09-16T19:24:30.957Z,84.72
2022-09-16T19:27:40.750Z,84.67
2022-09-16T19:30:49.641Z,84.08
2022-09-16T19:33:59.342Z,84.54
2022-09-16T19:37:07.842Z,84.88
2022-09-16T19:40:19.404Z,84.30
2022-09-16T19:43:28.264Z,84.23
2022-09-16T19:46:39.277Z,83.94
2022-09-16T19:49:48.366Z,83.71
2022-09-16T19:53:00.296Z,84.17
2022-09-16T19:56:17.111Z,84.71
2022-09-16T19:59:25.562Z,84.08
2022-09-16T20:02:35.605Z,83.80
2022-09-16T20:05:44.012Z,84.26
2022-09-16T20:08:56.983Z,84.19
2022-09-16T20:12:07.625Z,83.54
2022-09-16T20:15:16.866Z,83.29
2022-09-16T20:18:25.711Z,84.09
2022-09-16T20:21:36.365Z,82.79
2022-09-16T20:24:45.317Z,82.97
2022-09-16T20:27:56.269Z,82.63
2022-09-16T20:31:05.794Z,82.93
2022-09-16T20:34:16.271Z,82.79
2022-09-16T20:37:27.898Z,82.34
2022-09-16T20:40:37.128Z,82.93
2022-09-16T20:43:49.889Z,82.83
2022-09-16T20:46:58.665Z,82.31
2022-09-16T20:50:09.287Z,83.19
2022-09-16T20:53:17.886Z,82.37
2022-09-16T20:56:35.262Z,82.23
2022-09-16T20:59:47.721Z,82.26
2022-09-16T21:02:57.427Z,82.07
2022-09-16T21:06:09.813Z,82.33
2022-09-16T21:09:19.670Z,82.89
2022-09-16T21:12:30.304Z,83.46
2022-09-16T21:15:40.523Z,82.52
2022-09-16T21:18:55.034Z,82.48
2022-09-16T21:22:03.776Z,82.44
2022-09-16T21:25:12.434Z,82.90
2022-09-16T21:28:20.662Z,82.92
2022-09-16T21:31:34.643Z,82.93
2022-09-16T21:34:43.324Z,82.57
2022-09-16T21:37:52.061Z,83.15
2022-09-16T21:41:03.733Z,82.06
2022-09-16T21:44:12.957Z,82.21
2022-09-16T21:47:22.936Z,81.84
2022-09-16T21:50:32.180Z,82.27
2022-09-16T21:53:42.888Z,82.40
2022-09-16T21:56:52.804Z,81.72
2022-09-16T22:00:01.023Z,82.13
2022-09-16T22:03:19.094Z,81.72
2022-09-16T22:06:28.184Z,82.23
2022-09-16T22:09:36.687Z,81.86
2022-09-16T22:12:45.152Z,82.11
2022-09-16T22:15:53.769Z,82.52
2022-09-16T22:19:06.910Z,82.44
2022-09-16T22:22:15.212Z,83.08
2022-09-16T22:25:24.258Z,83.17
2022-09-16T22:28:35.209Z,84.05
2022-09-16T22:31:43.742Z,83.37
2022-09-16T22:34:53.648Z,84.03
2022-09-16T22:38:01.776Z,84.32
2022-09-16T22:41:11.081Z,84.54
2022-09-16T22:44:19.440Z,84.26
2022-09-16T22:47:27.873Z,85.12
2022-09-16T22:50:37.661Z,84.86
2022-09-16T22:53:46.931Z,84.95
2022-09-16T22:56:55.225Z,85.16
2022-09-16T23:00:04.305Z,85.44
2022-09-16T23:03:12.763Z,85.39
2022-09-16T23:06:23.728Z,85.14
2022-09-16T23:09:31.960Z,85.50
2022-09-16T23:12:40.898Z,84.98
2022-09-16T23:15:53.612Z,84.52
2022-09-16T23:19:05.744Z,84.25
2022-09-16T23:22:15.492Z,84.10
2022-09-16T23:25:24.261Z,83.68
2022-09-16T23:28:32.776Z,83.88
2022-09-16T23:31:45.010Z,84.23
2022-09-16T23:34:53.406Z,83.97
2022-09-16T23:38:03.054Z,84.15
2022-09-16T23:41:15.132Z,83.44
2022-09-16T23:44:25.606Z,84.62
2022-09-16T23:47:33.683Z,83.77
2022-09-16T23:50:42.105Z,84.13
2022-09-16T23:53:55.339Z,83.98
2022-09-16T23:57:03.744Z,84.39
